sensor_id;sensor_type;location;lat;lon;timestamp;P1;durP1;ratioP1;P2;durP2;ratioP2
57105;SDS011;61482;56.524;21.004;2022-08-01T12:53:46;5.03;;;3.90;;
57105;SDS011;61482;56.524;21.004;2022-08-01T12:56:16;5.93;;;3.17;;
57105;SDS011;62662;56.788;23.942;2022-08-01T12:58:43;2.92;;;2.63;;
57105;SDS011;62662;56.788;23.942;2022-08-01T13:01:24;4.53;;;2.95;;
57105;SDS011;62662;56.788;23.942;2022-08-01T13:05:59;5.68;;;3.10;;
57105;SDS011;62662;56.788;23.942;2022-08-01T13:08:29;3.83;;;3.00;;
57105;SDS011;62662;56.788;23.942;2022-08-01T13:11:00;2.80;;;2.60;;
57105;SDS011;62662;56.788;23.942;2022-08-01T13:13:37;2.88;;;2.50;;
57105;SDS011;62662;56.788;23.942;2022-08-01T13:16:09;2.38;;;2.17;;
57105;SDS011;62662;56.788;23.942;2022-08-01T13:18:41;2.50;;;2.30;;
57105;SDS011;62662;56.788;23.942;2022-08-01T13:21:20;2.72;;;2.40;;
57105;SDS011;62662;56.788;23.942;2022-08-01T13:24:07;2.40;;;2.10;;
57105;SDS011;62662;56.788;23.942;2022-08-01T13:26:46;2.35;;;2.13;;
57105;SDS011;62662;56.788;23.942;2022-08-01T13:29:30;2.00;;;1.80;;
57105;SDS011;62662;56.788;23.942;2022-08-01T13:31:58;2.42;;;1.60;;
57105;SDS011;62662;56.788;23.942;2022-08-01T13:34:32;2.78;;;1.90;;
57105;SDS011;62662;56.788;23.942;2022-08-01T13:37:02;2.95;;;1.90;;
57105;SDS011;62662;56.788;23.942;2022-08-01T13:39:30;2.40;;;1.75;;
57105;SDS011;62662;56.788;23.942;2022-08-01T13:42:11;2.22;;;1.98;;
57105;SDS011;62662;56.788;23.942;2022-08-01T13:44:44;1.80;;;1.67;;
57105;SDS011;62662;56.788;23.942;2022-08-01T13:47:17;2.78;;;1.95;;
57105;SDS011;62662;56.788;23.942;2022-08-01T13:50:00;2.47;;;1.52;;
57105;SDS011;62662;56.788;23.942;2022-08-01T13:52:29;2.33;;;1.73;;
57105;SDS011;62662;56.788;23.942;2022-08-01T13:54:58;1.60;;;1.50;;
57105;SDS011;62662;56.788;23.942;2022-08-01T13:57:25;2.45;;;1.65;;
57105;SDS011;62662;56.788;23.942;2022-08-01T14:00:03;4.68;;;2.10;;
57105;SDS011;62662;56.788;23.942;2022-08-01T14:02:32;2.13;;;1.70;;
57105;SDS011;62662;56.788;23.942;2022-08-01T14:05:00;3.75;;;1.77;;
57105;SDS011;62662;56.788;23.942;2022-08-01T14:07:28;4.22;;;2.00;;
57105;SDS011;62662;56.788;23.942;2022-08-01T14:09:57;2.60;;;1.48;;
57105;SDS011;62662;56.788;23.942;2022-08-01T14:12:44;1.80;;;1.70;;
57105;SDS011;62662;56.788;23.942;2022-08-01T14:15:12;2.75;;;2.13;;
57105;SDS011;62662;56.788;23.942;2022-08-01T14:18:00;2.97;;;2.17;;
57105;SDS011;62662;56.788;23.942;2022-08-01T14:20:27;2.60;;;1.92;;
57105;SDS011;62662;56.788;23.942;2022-08-01T14:22:55;3.33;;;2.35;;
57105;SDS011;62662;56.788;23.942;2022-08-01T14:25:23;2.22;;;1.77;;
57105;SDS011;62662;56.788;23.942;2022-08-01T14:28:10;2.75;;;1.67;;
57105;SDS011;62662;56.788;23.942;2022-08-01T14:30:41;2.13;;;1.75;;
57105;SDS011;62662;56.788;23.942;2022-08-01T14:33:09;4.38;;;2.38;;
57105;SDS011;62662;56.788;23.942;2022-08-01T14:35:41;4.55;;;2.25;;
57105;SDS011;62662;56.788;23.942;2022-08-01T14:38:30;4.60;;;1.88;;
57105;SDS011;62662;56.788;23.942;2022-08-01T14:40:59;3.92;;;2.10;;
57105;SDS011;62662;56.788;23.942;2022-08-01T14:43:29;2.38;;;1.70;;
57105;SDS011;62662;56.788;23.942;2022-08-01T14:45:59;2.97;;;1.85;;
57105;SDS011;62662;56.788;23.942;2022-08-01T14:48:32;1.80;;;1.70;;
57105;SDS011;62662;56.788;23.942;2022-08-01T14:51:00;2.25;;;1.90;;
57105;SDS011;62662;56.788;23.942;2022-08-01T14:53:29;2.42;;;1.77;;
57105;SDS011;62662;56.788;23.942;2022-08-01T14:56:01;3.42;;;1.90;;
57105;SDS011;62662;56.788;23.942;2022-08-01T14:58:35;2.45;;;2.00;;
57105;SDS011;62662;56.788;23.942;2022-08-01T15:01:02;2.35;;;1.85;;
57105;SDS011;62662;56.788;23.942;2022-08-01T15:03:32;2.50;;;1.92;;
57105;SDS011;62662;56.788;23.942;2022-08-01T15:05:59;2.42;;;2.22;;
57105;SDS011;62662;56.788;23.942;2022-08-01T15:08:30;5.47;;;1.75;;
57105;SDS011;62662;56.788;23.942;2022-08-01T15:10:58;3.38;;;1.98;;
57105;SDS011;62662;56.788;23.942;2022-08-01T15:13:28;2.67;;;1.90;;
57105;SDS011;62662;56.788;23.942;2022-08-01T15:15:59;2.42;;;2.20;;
57105;SDS011;62662;56.788;23.942;2022-08-01T15:18:27;3.42;;;1.90;;
57105;SDS011;62662;56.788;23.942;2022-08-01T15:20:55;2.15;;;1.80;;
57105;SDS011;62662;56.788;23.942;2022-08-01T15:23:23;3.88;;;1.92;;
57105;SDS011;62662;56.788;23.942;2022-08-01T15:25:55;2.30;;;1.83;;
57105;SDS011;62662;56.788;23.942;2022-08-01T15:28:24;2.10;;;1.90;;
57105;SDS011;62662;56.788;23.942;2022-08-01T15:30:52;3.95;;;1.83;;
57105;SDS011;62662;56.788;23.942;2022-08-01T15:33:19;3.10;;;1.70;;
57105;SDS011;62662;56.788;23.942;2022-08-01T15:35:48;2.90;;;2.05;;
57105;SDS011;62662;56.788;23.942;2022-08-01T15:38:18;2.30;;;1.80;;
57105;SDS011;62662;56.788;23.942;2022-08-01T15:40:45;2.05;;;1.85;;
57105;SDS011;62662;56.788;23.942;2022-08-01T15:43:13;3.08;;;1.80;;
57105;SDS011;62662;56.788;23.942;2022-08-01T15:45:41;2.05;;;1.85;;
57105;SDS011;62662;56.788;23.942;2022-08-01T15:48:14;5.30;;;1.63;;
57105;SDS011;62662;56.788;23.942;2022-08-01T15:50:49;1.80;;;1.70;;
57105;SDS011;62662;56.788;23.942;2022-08-01T15:53:23;3.80;;;2.08;;
57105;SDS011;62662;56.788;23.942;2022-08-01T15:55:51;2.88;;;1.90;;
57105;SDS011;62662;56.788;23.942;2022-08-01T15:58:34;1.80;;;1.70;;
57105;SDS011;62662;56.788;23.942;2022-08-01T16:01:02;2.13;;;1.80;;
57105;SDS011;62662;56.788;23.942;2022-08-01T16:03:32;2.08;;;1.83;;
57105;SDS011;62662;56.788;23.942;2022-08-01T16:06:02;2.70;;;2.00;;
57105;SDS011;62662;56.788;23.942;2022-08-01T16:08:34;1.85;;;1.73;;
57105;SDS011;62662;56.788;23.942;2022-08-01T16:11:01;2.45;;;1.98;;
57105;SDS011;62662;56.788;23.942;2022-08-01T16:13:31;1.77;;;1.63;;
57105;SDS011;62662;56.788;23.942;2022-08-01T16:16:01;2.33;;;1.65;;
57105;SDS011;62662;56.788;23.942;2022-08-01T16:18:34;4.03;;;1.73;;
57105;SDS011;62662;56.788;23.942;2022-08-01T16:21:03;2.90;;;1.95;;
57105;SDS011;62662;56.788;23.942;2022-08-01T16:23:33;1.90;;;1.80;;
57105;SDS011;62662;56.788;23.942;2022-08-01T16:26:09;2.22;;;2.03;;
57105;SDS011;62662;56.788;23.942;2022-08-01T16:28:53;4.80;;;1.98;;
57105;SDS011;62662;56.788;23.942;2022-08-01T16:31:21;2.05;;;1.95;;
57105;SDS011;62662;56.788;23.942;2022-08-01T16:34:11;3.13;;;2.08;;
57105;SDS011;62662;56.788;23.942;2022-08-01T16:36:41;3.70;;;1.52;;
57105;SDS011;62662;56.788;23.942;2022-08-01T16:39:12;2.45;;;2.03;;
57105;SDS011;62662;56.788;23.942;2022-08-01T16:41:45;2.80;;;1.85;;
57105;SDS011;62662;56.788;23.942;2022-08-01T16:44:22;2.10;;;1.90;;
57105;SDS011;62662;56.788;23.942;2022-08-01T16:46:59;3.33;;;1.80;;
57105;SDS011;62662;56.788;23.942;2022-08-01T16:49:27;2.42;;;2.08;;
57105;SDS011;62662;56.788;23.942;2022-08-01T16:52:00;3.47;;;2.15;;
57105;SDS011;62662;56.788;23.942;2022-08-01T16:54:28;6.13;;;2.28;;
57105;SDS011;62662;56.788;23.942;2022-08-01T16:56:55;2.70;;;2.08;;
57105;SDS011;62662;56.788;23.942;2022-08-01T16:59:34;4.40;;;2.45;;
57105;SDS011;62662;56.788;23.942;2022-08-01T17:02:07;2.45;;;2.25;;
57105;SDS011;62662;56.788;23.942;2022-08-01T17:04:40;6.53;;;2.50;;
57105;SDS011;62662;56.788;23.942;2022-08-01T17:07:14;3.33;;;2.28;;
57105;SDS011;62662;56.788;23.942;2022-08-01T17:09:42;4.55;;;2.00;;
57105;SDS011;62662;56.788;23.942;2022-08-01T17:12:10;3.05;;;2.13;;
57105;SDS011;62662;56.788;23.942;2022-08-01T17:14:47;3.75;;;2.38;;
57105;SDS011;62662;56.788;23.942;2022-08-01T17:17:16;2.17;;;1.98;;
57105;SDS011;62662;56.788;23.942;2022-08-01T17:19:43;4.65;;;1.85;;
57105;SDS011;62662;56.788;23.942;2022-08-01T17:22:11;2.78;;;2.25;;
57105;SDS011;62662;56.788;23.942;2022-08-01T17:24:41;4.60;;;2.30;;
57105;SDS011;62662;56.788;23.942;2022-08-01T17:27:08;3.17;;;1.98;;
57105;SDS011;62662;56.788;23.942;2022-08-01T17:29:41;5.43;;;2.60;;
57105;SDS011;62662;56.788;23.942;2022-08-01T17:32:10;3.40;;;2.22;;
57105;SDS011;62662;56.788;23.942;2022-08-01T17:34:40;5.07;;;2.42;;
57105;SDS011;62662;56.788;23.942;2022-08-01T17:37:11;4.05;;;2.53;;
57105;SDS011;62662;56.788;23.942;2022-08-01T17:39:41;5.47;;;2.30;;
57105;SDS011;62662;56.788;23.942;2022-08-01T17:42:11;2.30;;;2.10;;
57105;SDS011;62662;56.788;23.942;2022-08-01T17:44:42;2.50;;;1.98;;
57105;SDS011;62662;56.788;23.942;2022-08-01T17:47:17;4.20;;;2.15;;
57105;SDS011;62662;56.788;23.942;2022-08-01T17:50:09;5.82;;;2.20;;
57105;SDS011;62662;56.788;23.942;2022-08-01T17:52:38;2.92;;;2.13;;
57105;SDS011;62662;56.788;23.942;2022-08-01T17:55:06;4.45;;;2.63;;
57105;SDS011;62662;56.788;23.942;2022-08-01T17:57:57;2.67;;;2.20;;
57105;SDS011;62662;56.788;23.942;2022-08-01T18:00:25;6.15;;;2.45;;
57105;SDS011;62662;56.788;23.942;2022-08-01T18:02:57;2.63;;;2.35;;
57105;SDS011;62662;56.788;23.942;2022-08-01T18:05:24;3.22;;;2.42;;
57105;SDS011;62662;56.788;23.942;2022-08-01T18:08:03;2.90;;;2.60;;
57105;SDS011;62662;56.788;23.942;2022-08-01T18:10:32;4.90;;;2.75;;
57105;SDS011;62662;56.788;23.942;2022-08-01T18:13:05;7.20;;;3.13;;
57105;SDS011;62662;56.788;23.942;2022-08-01T18:15:35;4.03;;;2.55;;
57105;SDS011;62662;56.788;23.942;2022-08-01T18:18:07;3.35;;;3.05;;
57105;SDS011;62662;56.788;23.942;2022-08-01T18:20:38;3.08;;;2.75;;
57105;SDS011;62662;56.788;23.942;2022-08-01T18:25:42;3.70;;;3.38;;
57105;SDS011;62662;56.788;23.942;2022-08-01T18:28:11;4.22;;;2.88;;
57105;SDS011;62662;56.788;23.942;2022-08-01T18:30:56;3.20;;;2.47;;
57105;SDS011;62662;56.788;23.942;2022-08-01T18:33:23;4.72;;;2.88;;
57105;SDS011;62662;56.788;23.942;2022-08-01T18:35:51;3.70;;;2.33;;
57105;SDS011;62662;56.788;23.942;2022-08-01T18:38:28;2.97;;;2.60;;
57105;SDS011;62662;56.788;23.942;2022-08-01T18:41:07;3.67;;;2.38;;
57105;SDS011;62662;56.788;23.942;2022-08-01T18:43:35;3.03;;;2.40;;
57105;SDS011;62662;56.788;23.942;2022-08-01T18:46:05;2.85;;;2.55;;
57105;SDS011;62662;56.788;23.942;2022-08-01T18:48:33;4.60;;;2.95;;
57105;SDS011;62662;56.788;23.942;2022-08-01T18:51:00;3.30;;;2.55;;
57105;SDS011;62662;56.788;23.942;2022-08-01T18:53:28;2.70;;;2.22;;
57105;SDS011;62662;56.788;23.942;2022-08-01T18:55:55;2.80;;;2.58;;
57105;SDS011;62662;56.788;23.942;2022-08-01T18:58:23;5.00;;;2.50;;
57105;SDS011;62662;56.788;23.942;2022-08-01T19:00:51;5.03;;;2.58;;
57105;SDS011;62662;56.788;23.942;2022-08-01T19:03:20;3.80;;;2.70;;
57105;SDS011;62662;56.788;23.942;2022-08-01T19:05:48;3.92;;;3.00;;
57105;SDS011;62662;56.788;23.942;2022-08-01T19:08:15;3.95;;;2.45;;
57105;SDS011;62662;56.788;23.942;2022-08-01T19:10:43;2.53;;;2.30;;
57105;SDS011;62662;56.788;23.942;2022-08-01T19:13:11;6.03;;;2.83;;
57105;SDS011;62662;56.788;23.942;2022-08-01T19:15:38;2.85;;;2.53;;
57105;SDS011;62662;56.788;23.942;2022-08-01T19:18:06;2.78;;;2.55;;
57105;SDS011;62662;56.788;23.942;2022-08-01T19:20:38;4.72;;;2.90;;
57105;SDS011;62662;56.788;23.942;2022-08-01T19:23:08;4.07;;;2.95;;
57105;SDS011;62662;56.788;23.942;2022-08-01T19:25:54;9.85;;;2.97;;
57105;SDS011;62662;56.788;23.942;2022-08-01T19:28:26;4.35;;;3.15;;
57105;SDS011;62662;56.788;23.942;2022-08-01T19:30:54;2.90;;;2.60;;
57105;SDS011;62662;56.788;23.942;2022-08-01T19:33:23;3.95;;;2.60;;
57105;SDS011;62662;56.788;23.942;2022-08-01T19:35:52;3.85;;;2.72;;
57105;SDS011;62662;56.788;23.942;2022-08-01T19:38:19;3.40;;;2.60;;
57105;SDS011;62662;56.788;23.942;2022-08-01T19:40:47;6.28;;;3.28;;
57105;SDS011;62662;56.788;23.942;2022-08-01T19:43:15;4.15;;;3.00;;
57105;SDS011;62662;56.788;23.942;2022-08-01T19:45:48;4.57;;;3.40;;
57105;SDS011;62662;56.788;23.942;2022-08-01T19:48:16;3.55;;;2.80;;
57105;SDS011;62662;56.788;23.942;2022-08-01T19:50:46;4.03;;;2.72;;
57105;SDS011;62662;56.788;23.942;2022-08-01T19:53:14;7.82;;;2.47;;
57105;SDS011;62662;56.788;23.942;2022-08-01T19:55:49;4.05;;;2.50;;
57105;SDS011;62662;56.788;23.942;2022-08-01T19:58:18;2.85;;;2.22;;
57105;SDS011;62662;56.788;23.942;2022-08-01T20:00:53;2.30;;;2.10;;
57105;SDS011;62662;56.788;23.942;2022-08-01T20:03:21;2.28;;;2.08;;
57105;SDS011;62662;56.788;23.942;2022-08-01T20:05:49;3.65;;;2.20;;
57105;SDS011;62662;56.788;23.942;2022-08-01T20:08:17;2.40;;;2.20;;
57105;SDS011;62662;56.788;23.942;2022-08-01T20:10:48;4.88;;;2.10;;
57105;SDS011;62662;56.788;23.942;2022-08-01T20:13:17;2.85;;;2.30;;
57105;SDS011;62662;56.788;23.942;2022-08-01T20:15:45;6.30;;;2.38;;
57105;SDS011;62662;56.788;23.942;2022-08-01T20:18:12;6.93;;;2.40;;
57105;SDS011;62662;56.788;23.942;2022-08-01T20:20:46;6.75;;;2.53;;
57105;SDS011;62662;56.788;23.942;2022-08-01T20:23:15;4.05;;;2.60;;
57105;SDS011;62662;56.788;23.942;2022-08-01T20:25:45;3.55;;;2.70;;
57105;SDS011;62662;56.788;23.942;2022-08-01T20:28:20;3.83;;;2.75;;
57105;SDS011;62662;56.788;23.942;2022-08-01T20:30:55;3.08;;;2.70;;
57105;SDS011;62662;56.788;23.942;2022-08-01T20:33:31;4.07;;;3.55;;
57105;SDS011;62662;56.788;23.942;2022-08-01T20:36:00;3.83;;;3.42;;
57105;SDS011;62662;56.788;23.942;2022-08-01T20:38:37;4.28;;;3.20;;
57105;SDS011;62662;56.788;23.942;2022-08-01T20:41:08;4.75;;;3.25;;
57105;SDS011;62662;56.788;23.942;2022-08-01T20:43:36;4.47;;;2.72;;
57105;SDS011;62662;56.788;23.942;2022-08-01T20:46:04;3.28;;;2.97;;
57105;SDS011;62662;56.788;23.942;2022-08-01T20:48:34;3.17;;;2.85;;
57105;SDS011;62662;56.788;23.942;2022-08-01T20:51:01;3.53;;;2.42;;
57105;SDS011;62662;56.788;23.942;2022-08-01T20:53:45;4.28;;;2.80;;
57105;SDS011;62662;56.788;23.942;2022-08-01T20:56:34;5.70;;;2.65;;
57105;SDS011;62662;56.788;23.942;2022-08-01T21:01:33;4.80;;;3.17;;
57105;SDS011;62662;56.788;23.942;2022-08-01T21:09:52;5.90;;;3.28;;
57105;SDS011;62662;56.788;23.942;2022-08-01T21:13:12;3.90;;;2.75;;
57105;SDS011;62662;56.788;23.942;2022-08-01T21:15:33;3.13;;;2.67;;
57105;SDS011;62662;56.788;23.942;2022-08-01T21:21:15;3.30;;;3.00;;
57105;SDS011;62662;56.788;23.942;2022-08-01T21:24:03;3.60;;;2.70;;
57105;SDS011;62662;56.788;23.942;2022-08-01T21:26:33;4.32;;;3.00;;
57105;SDS011;62662;56.788;23.942;2022-08-01T21:29:04;7.55;;;3.38;;
57105;SDS011;62662;56.788;23.942;2022-08-01T21:31:33;3.42;;;2.70;;
57105;SDS011;62662;56.788;23.942;2022-08-01T21:34:06;4.78;;;2.72;;
57105;SDS011;62662;56.788;23.942;2022-08-01T21:36:34;4.03;;;2.80;;
57105;SDS011;62662;56.788;23.942;2022-08-01T21:39:03;4.55;;;2.55;;
57105;SDS011;62662;56.788;23.942;2022-08-01T21:41:32;3.47;;;2.60;;
57105;SDS011;62662;56.788;23.942;2022-08-01T21:44:19;3.38;;;2.45;;
57105;SDS011;62662;56.788;23.942;2022-08-01T21:46:55;3.92;;;2.20;;
57105;SDS011;62662;56.788;23.942;2022-08-01T21:49:25;5.68;;;2.55;;
57105;SDS011;62662;56.788;23.942;2022-08-01T21:51:55;2.35;;;2.15;;
57105;SDS011;62662;56.788;23.942;2022-08-01T22:00:48;3.03;;;2.50;;
57105;SDS011;62662;56.788;23.942;2022-08-01T22:03:28;2.88;;;2.25;;
57105;SDS011;62662;56.788;23.942;2022-08-01T22:06:05;2.50;;;2.15;;
57105;SDS011;62662;56.788;23.942;2022-08-01T22:08:34;2.85;;;2.45;;
57105;SDS011;62662;56.788;23.942;2022-08-01T22:11:05;3.53;;;2.20;;
57105;SDS011;62662;56.788;23.942;2022-08-01T22:13:33;2.92;;;2.38;;
57105;SDS011;62662;56.788;23.942;2022-08-01T22:16:02;3.67;;;2.50;;
57105;SDS011;62662;56.788;23.942;2022-08-01T22:18:32;2.83;;;2.63;;
57105;SDS011;62662;56.788;23.942;2022-08-01T22:21:01;5.15;;;2.70;;
57105;SDS011;62662;56.788;23.942;2022-08-01T22:23:29;3.88;;;2.50;;
57105;SDS011;62662;56.788;23.942;2022-08-01T22:26:02;3.05;;;2.38;;
57105;SDS011;62662;56.788;23.942;2022-08-01T22:28:32;3.22;;;2.40;;
57105;SDS011;62662;56.788;23.942;2022-08-01T22:31:01;3.83;;;2.13;;
57105;SDS011;62662;56.788;23.942;2022-08-01T22:33:29;3.30;;;2.40;;
57105;SDS011;62662;56.788;23.942;2022-08-01T22:35:59;3.50;;;2.40;;
57105;SDS011;62662;56.788;23.942;2022-08-01T22:38:28;4.82;;;2.00;;
57105;SDS011;62662;56.788;23.942;2022-08-01T22:43:38;3.20;;;2.45;;
57105;SDS011;62662;56.788;23.942;2022-08-01T22:48:50;4.25;;;2.75;;
57105;SDS011;62662;56.788;23.942;2022-08-01T22:54:22;3.08;;;2.50;;
57105;SDS011;62662;56.788;23.942;2022-08-01T22:57:02;4.07;;;2.42;;
57105;SDS011;62662;56.788;23.942;2022-08-01T22:59:45;5.43;;;2.65;;
57105;SDS011;62662;56.788;23.942;2022-08-01T23:02:19;8.40;;;2.67;;
57105;SDS011;62662;56.788;23.942;2022-08-01T23:04:48;4.65;;;2.50;;
57105;SDS011;62662;56.788;23.942;2022-08-01T23:07:22;4.68;;;3.17;;
57105;SDS011;62662;56.788;23.942;2022-08-01T23:09:50;8.07;;;3.38;;
57105;SDS011;62662;56.788;23.942;2022-08-01T23:12:21;7.22;;;5.10;;
57105;SDS011;62662;56.788;23.942;2022-08-01T23:14:54;14.25;;;6.65;;
57105;SDS011;62662;56.788;23.942;2022-08-01T23:17:23;10.38;;;6.25;;
57105;SDS011;62662;56.788;23.942;2022-08-01T23:19:58;11.45;;;7.88;;
57105;SDS011;62662;56.788;23.942;2022-08-01T23:22:28;14.93;;;7.90;;
57105;SDS011;62662;56.788;23.942;2022-08-01T23:24:58;12.73;;;7.68;;
57105;SDS011;62662;56.788;23.942;2022-08-01T23:27:31;14.20;;;8.32;;
57105;SDS011;62662;56.788;23.942;2022-08-01T23:30:21;11.50;;;8.50;;
57105;SDS011;62662;56.788;23.942;2022-08-01T23:32:50;16.25;;;9.65;;
57105;SDS011;62662;56.788;23.942;2022-08-01T23:35:18;11.00;;;7.88;;
57105;SDS011;62662;56.788;23.942;2022-08-01T23:37:45;16.02;;;8.57;;
57105;SDS011;62662;56.788;23.942;2022-08-01T23:40:12;11.60;;;7.82;;
57105;SDS011;62662;56.788;23.942;2022-08-01T23:42:39;11.55;;;7.97;;
57105;SDS011;62662;56.788;23.942;2022-08-01T23:45:06;9.70;;;6.75;;
57105;SDS011;62662;56.788;23.942;2022-08-01T23:47:34;10.40;;;6.68;;
57105;SDS011;62662;56.788;23.942;2022-08-01T23:50:01;8.65;;;6.32;;
57105;SDS011;62662;56.788;23.942;2022-08-01T23:52:28;9.90;;;6.30;;
57105;SDS011;62662;56.788;23.942;2022-08-01T23:54:59;9.23;;;6.03;;
57105;SDS011;62662;56.788;23.942;2022-08-01T23:57:40;7.50;;;5.53;;
